createdAt,value
2023-04-25T00:00:37.465Z,54887.06
2023-04-25T00:03:07.593Z,54851.25
2023-04-25T00:05:38.205Z,54871.16
2023-04-25T00:08:06.980Z,54889.03
2023-04-25T00:10:37.001Z,54879.09
2023-04-25T00:13:05.550Z,54889.03
2023-04-25T00:15:34.073Z,54887.06
2023-04-25T00:18:02.442Z,54851.25
2023-04-25T00:20:31.149Z,54827.38
2023-04-25T00:22:59.480Z,54902.97
2023-04-25T00:25:27.907Z,54843.28
2023-04-25T00:27:57.593Z,54841.31
2023-04-25T00:30:26.376Z,54847.28
2023-04-25T00:32:57.382Z,54773.69
2023-04-25T00:35:25.807Z,54755.78
2023-04-25T00:37:54.171Z,54775.69
2023-04-25T00:40:22.819Z,54783.63
2023-04-25T00:42:53.635Z,54819.44
2023-04-25T00:45:23.672Z,54861.19
2023-04-25T00:47:52.415Z,54891.03
2023-04-25T00:50:20.803Z,54918.88
2023-04-25T00:52:49.262Z,54918.88
2023-04-25T00:55:18.446Z,54986.50
2023-04-25T00:57:47.922Z,54950.69
2023-04-25T01:00:17.286Z,54976.56
2023-04-25T01:02:49.678Z,54962.63
2023-04-25T01:05:19.911Z,54930.81
2023-04-25T01:07:48.365Z,54934.78
2023-04-25T01:10:16.762Z,54914.91
2023-04-25T01:12:45.303Z,54916.88
2023-04-25T01:15:13.667Z,54982.53
2023-04-25T01:17:43.918Z,55018.31
2023-04-25T01:20:16.167Z,55038.22
2023-04-25T01:22:48.604Z,55026.28
2023-04-25T01:25:17.679Z,55030.25
2023-04-25T01:27:46.401Z,55022.31
2023-04-25T01:30:16.092Z,55050.16
2023-04-25T01:32:45.625Z,55058.09
2023-04-25T01:35:15.055Z,55034.22
2023-04-25T01:37:45.607Z,54970.59
2023-04-25T01:40:15.051Z,54970.59
2023-04-25T01:42:46.078Z,54998.44
2023-04-25T01:45:15.476Z,54962.63
2023-04-25T01:47:48.038Z,54962.63
2023-04-25T01:50:17.156Z,54990.47
2023-04-25T01:52:47.184Z,55046.16
2023-04-25T01:55:15.861Z,55097.88
2023-04-25T01:57:54.128Z,55093.91
2023-04-25T02:00:29.882Z,55089.94
2023-04-25T02:03:00.412Z,55145.63
2023-04-25T02:05:37.800Z,55083.97
2023-04-25T02:08:10.541Z,55105.84
2023-04-25T02:10:39.212Z,55089.94
2023-04-25T02:13:20.853Z,55093.91
2023-04-25T02:16:00.351Z,55161.53
2023-04-25T02:18:28.828Z,55187.38
2023-04-25T02:20:57.211Z,55217.22
2023-04-25T02:23:27.117Z,55243.09
2023-04-25T02:25:56.416Z,55227.16
2023-04-25T02:28:26.434Z,55259.00
2023-04-25T02:30:54.868Z,55235.13
2023-04-25T02:33:23.212Z,55288.84
2023-04-25T02:35:51.559Z,55257.00
2023-04-25T02:38:19.876Z,55338.56
2023-04-25T02:40:49.597Z,55350.50
2023-04-25T02:43:17.975Z,55376.34
2023-04-25T02:45:46.343Z,55390.28
2023-04-25T02:48:14.975Z,55346.50
2023-04-25T02:50:43.299Z,55354.47
2023-04-25T02:53:11.738Z,55406.19
2023-04-25T02:55:46.709Z,55529.53
2023-04-25T02:58:18.902Z,55627.00
2023-04-25T03:00:53.449Z,55798.09
2023-04-25T03:03:23.012Z,55859.75
2023-04-25T03:05:53.460Z,55945.31
2023-04-25T03:08:30.505Z,55989.06
2023-04-25T03:10:59.446Z,55921.44
2023-04-25T03:13:31.026Z,55937.34
2023-04-25T03:16:00.039Z,55877.66
2023-04-25T03:18:28.512Z,55921.44
2023-04-25T03:20:57.086Z,55893.56
2023-04-25T03:23:26.113Z,55861.75
2023-04-25T03:25:54.696Z,55877.66
2023-04-25T03:28:23.105Z,55885.63
2023-04-25T03:30:52.986Z,55903.53
2023-04-25T03:33:21.454Z,55905.50
2023-04-25T03:35:50.997Z,55873.69
2023-04-25T03:38:19.546Z,55877.66
2023-04-25T03:40:48.096Z,55939.34
2023-04-25T03:43:21.495Z,55905.50
2023-04-25T03:45:57.401Z,56036.81
2023-04-25T03:48:27.870Z,56032.84
2023-04-25T03:50:58.621Z,56048.75
2023-04-25T03:53:27.550Z,56094.50
2023-04-25T03:56:28.221Z,56253.69
2023-04-25T03:59:03.557Z,56339.25
2023-04-25T04:01:34.237Z,56379.03
2023-04-25T04:04:02.768Z,56480.53
2023-04-25T04:06:32.239Z,56528.28
2023-04-25T04:09:12.100Z,56568.06
2023-04-25T04:11:42.058Z,56613.84
2023-04-25T04:14:11.385Z,56619.81
2023-04-25T04:16:45.881Z,56824.78
2023-04-25T04:19:15.057Z,56978.00
2023-04-25T04:21:48.963Z,57071.53
2023-04-25T04:24:18.746Z,57039.69
2023-04-25T04:26:53.286Z,57087.47
2023-04-25T04:29:48.171Z,57125.28
2023-04-25T04:32:24.416Z,57117.31
2023-04-25T04:34:53.242Z,57145.19
2023-04-25T04:37:23.867Z,57200.91
2023-04-25T04:39:53.018Z,57388.00
2023-04-25T04:42:41.976Z,57419.84
2023-04-25T04:45:24.767Z,57577.09
2023-04-25T04:48:09.794Z,57796.03
2023-04-25T04:50:57.031Z,57656.69
2023-04-25T04:53:59.444Z,57630.81
2023-04-25T04:56:42.894Z,57915.47
2023-04-25T04:59:43.379Z,57202.91
2023-04-25T05:02:44.233Z,57147.16
2023-04-25T05:05:31.159Z,57354.16
2023-04-25T05:08:25.505Z,57312.34
2023-04-25T05:11:14.250Z,56512.34
2023-04-25T05:13:59.480Z,56389.00
2023-04-25T05:16:43.332Z,56633.75
2023-04-25T05:19:31.966Z,56247.72
2023-04-25T05:22:25.092Z,56012.94
2023-04-25T05:25:12.358Z,56422.81
2023-04-25T05:27:59.642Z,55989.06
2023-04-25T05:30:51.191Z,56225.84
2023-04-25T05:33:23.159Z,56108.44
2023-04-25T05:35:52.468Z,55949.28
2023-04-25T05:38:22.553Z,55806.03
2023-04-25T05:41:20.346Z,55855.78
2023-04-25T05:43:58.530Z,56267.63
2023-04-25T05:46:39.344Z,56132.31
2023-04-25T05:49:27.966Z,55963.22
2023-04-25T05:51:59.124Z,55666.78
2023-04-25T05:54:49.198Z,55798.09
2023-04-25T05:57:23.197Z,55943.31
2023-04-25T05:59:51.751Z,55539.47
2023-04-25T06:02:21.616Z,55447.97
2023-04-25T06:04:52.417Z,55266.94
2023-04-25T06:07:21.977Z,55181.41
2023-04-25T06:09:52.133Z,55153.56
2023-04-25T06:12:20.896Z,55169.50
2023-04-25T06:14:51.102Z,54928.81
2023-04-25T06:17:19.695Z,54904.94
2023-04-25T06:19:51.135Z,54895.00
2023-04-25T06:22:20.129Z,54835.34
2023-04-25T06:24:48.612Z,54696.13
2023-04-25T06:27:18.411Z,54640.44
2023-04-25T06:29:46.903Z,54501.22
2023-04-25T06:32:16.464Z,54517.16
2023-04-25T06:34:44.862Z,54533.06
2023-04-25T06:37:13.440Z,54568.84
2023-04-25T06:39:41.955Z,54449.53
2023-04-25T06:42:11.083Z,54431.63
2023-04-25T06:44:49.780Z,54397.81
2023-04-25T06:47:19.820Z,54445.56
2023-04-25T06:49:48.484Z,54322.25
2023-04-25T06:52:19.063Z,54381.91
2023-04-25T06:54:48.259Z,54358.06
2023-04-25T06:57:29.136Z,54318.28
2023-04-25T07:00:06.473Z,54360.03
2023-04-25T07:02:35.115Z,54340.16
2023-04-25T07:05:05.180Z,54248.69
2023-04-25T07:07:33.698Z,54246.69
2023-04-25T07:10:02.168Z,54238.75
2023-04-25T07:12:30.797Z,54202.94
2023-04-25T07:14:59.680Z,54216.88
2023-04-25T07:17:29.712Z,54202.94
2023-04-25T07:19:58.944Z,54210.91
2023-04-25T07:22:30.148Z,54195.00
2023-04-25T07:24:58.595Z,54161.19
2023-04-25T07:27:28.783Z,54093.59
2023-04-25T07:30:14.433Z,54113.47
2023-04-25T07:32:44.452Z,54121.41
2023-04-25T07:35:13.163Z,54123.41
2023-04-25T07:37:42.894Z,54111.47
2023-04-25T07:40:16.912Z,54061.78
2023-04-25T07:42:49.627Z,54127.38
2023-04-25T07:45:24.649Z,54047.84
2023-04-25T07:47:55.328Z,54039.91
2023-04-25T07:50:24.063Z,53992.19
2023-04-25T07:52:52.742Z,54037.91
2023-04-25T07:55:28.351Z,54000.13
2023-04-25T07:58:11.445Z,53958.38
2023-04-25T08:00:42.864Z,53978.25
2023-04-25T08:03:31.365Z,53980.25
2023-04-25T08:06:02.169Z,53976.28
2023-04-25T08:08:34.508Z,53952.41
2023-04-25T08:11:03.139Z,53944.47
2023-04-25T08:13:31.679Z,53964.34
2023-04-25T08:16:01.342Z,53912.66
2023-04-25T08:18:31.978Z,53904.69
2023-04-25T08:21:00.763Z,53896.75
2023-04-25T08:23:29.214Z,53914.63
2023-04-25T08:26:07.001Z,53894.75
2023-04-25T08:28:38.661Z,53916.63
2023-04-25T08:31:08.704Z,53912.66
2023-04-25T08:33:50.597Z,53876.84
2023-04-25T08:36:39.391Z,53872.88
2023-04-25T08:39:21.958Z,53858.97
2023-04-25T08:42:10.404Z,53817.22
2023-04-25T08:44:40.320Z,53821.19
2023-04-25T08:47:09.071Z,53845.03
2023-04-25T08:49:50.645Z,53805.28
2023-04-25T08:52:24.474Z,53819.19
2023-04-25T08:54:56.633Z,53783.41
2023-04-25T08:57:26.493Z,53805.28
2023-04-25T08:59:55.315Z,53801.31
2023-04-25T09:02:26.934Z,53797.31
2023-04-25T09:04:58.512Z,53777.44
2023-04-25T09:07:26.996Z,53797.31
2023-04-25T09:09:56.104Z,53787.38
2023-04-25T09:12:25.194Z,53763.53
2023-04-25T09:15:07.019Z,53769.50
2023-04-25T09:18:05.186Z,53803.28
2023-04-25T09:23:17.328Z,53801.31
2023-04-25T09:25:46.980Z,53773.47
2023-04-25T09:28:15.480Z,53759.56
2023-04-25T09:30:44.799Z,53771.47
2023-04-25T09:33:19.034Z,53789.38
2023-04-25T09:35:56.385Z,53773.47
2023-04-25T09:38:46.019Z,53797.31
2023-04-25T09:41:25.961Z,53765.50
2023-04-25T09:44:00.216Z,53759.56
2023-04-25T09:46:37.443Z,53745.63
2023-04-25T09:49:11.049Z,53765.50
2023-04-25T09:51:58.597Z,53713.81
2023-04-25T09:54:31.177Z,53693.94
2023-04-25T09:57:17.445Z,53699.91
2023-04-25T09:59:47.499Z,53725.75
2023-04-25T10:02:17.909Z,53697.91
2023-04-25T10:04:52.819Z,53686.00
2023-04-25T10:07:31.500Z,53725.75
2023-04-25T10:10:03.462Z,53715.81
2023-04-25T10:12:33.203Z,53745.63
2023-04-25T10:15:02.468Z,53711.84
2023-04-25T10:17:31.307Z,53709.84
2023-04-25T10:20:01.143Z,53701.88
2023-04-25T10:22:36.733Z,53693.94
2023-04-25T10:25:06.376Z,53693.94
2023-04-25T10:27:34.921Z,53664.13
2023-04-25T10:30:07.287Z,53687.97
2023-04-25T10:32:36.411Z,53682.00
2023-04-25T10:35:16.494Z,53658.16
2023-04-25T10:38:05.782Z,53656.16
2023-04-25T10:40:35.373Z,53686.00
2023-04-25T10:43:37.866Z,53680.03
2023-04-25T10:46:16.297Z,53721.78
2023-04-25T10:48:52.670Z,53684.00
2023-04-25T10:51:23.645Z,53739.66
2023-04-25T10:54:04.592Z,53711.84
2023-04-25T10:56:33.910Z,53731.72
2023-04-25T10:59:06.985Z,53721.78
2023-04-25T11:01:39.861Z,53755.56
2023-04-25T11:04:09.073Z,53725.75
2023-04-25T11:06:50.754Z,53769.50
2023-04-25T11:09:21.865Z,53773.47
2023-04-25T11:11:56.274Z,53775.47
2023-04-25T11:14:24.733Z,53757.56
2023-04-25T11:16:58.846Z,53733.69
2023-04-25T11:19:29.349Z,53729.72
2023-04-25T11:21:58.239Z,53717.78
2023-04-25T11:24:30.146Z,53715.81
2023-04-25T11:27:00.556Z,53699.91
2023-04-25T11:29:29.330Z,53717.78
2023-04-25T11:31:59.185Z,53703.88
2023-04-25T11:34:28.129Z,53719.78
2023-04-25T11:36:56.614Z,53713.81
2023-04-25T11:39:27.185Z,53686.00
2023-04-25T11:41:57.790Z,53684.00
2023-04-25T11:44:26.885Z,53658.16
2023-04-25T11:46:55.241Z,53652.19
2023-04-25T11:49:23.618Z,53626.34
2023-04-25T11:51:52.168Z,53634.28
2023-04-25T11:54:20.884Z,53594.53
2023-04-25T11:56:49.351Z,53534.88
2023-04-25T11:59:19.256Z,53602.47
2023-04-25T12:01:51.630Z,53630.31
2023-04-25T12:04:24.552Z,53717.78
2023-04-25T12:06:54.879Z,53666.09
2023-04-25T12:09:29.669Z,53689.97
2023-04-25T12:12:00.231Z,53729.72
2023-04-25T12:14:32.503Z,53723.75
2023-04-25T12:17:02.505Z,53737.69
2023-04-25T12:19:35.601Z,53753.59
2023-04-25T12:22:05.262Z,53711.84
2023-04-25T12:24:39.271Z,53741.66
2023-04-25T12:27:10.066Z,53781.41
2023-04-25T12:29:49.357Z,53723.75
2023-04-25T12:32:18.864Z,53725.75
2023-04-25T12:34:47.372Z,53703.88
2023-04-25T12:37:16.208Z,53695.94
2023-04-25T12:39:44.726Z,53701.88
2023-04-25T12:42:13.892Z,53741.66
2023-04-25T12:44:43.875Z,53686.00
2023-04-25T12:47:12.495Z,53666.09
2023-04-25T12:49:41.077Z,53654.19
2023-04-25T12:52:09.557Z,53674.06
2023-04-25T12:54:38.265Z,53650.19
2023-04-25T12:57:06.863Z,53612.44
2023-04-25T12:59:35.544Z,53600.50
2023-04-25T13:02:05.827Z,53646.22
2023-04-25T13:04:34.508Z,53652.19
2023-04-25T13:07:03.140Z,53630.31
2023-04-25T13:09:31.487Z,53578.63
2023-04-25T13:12:00.009Z,53572.66
2023-04-25T13:14:28.465Z,53546.81
2023-04-25T13:16:56.969Z,53467.28
2023-04-25T13:19:27.110Z,53572.66
2023-04-25T13:21:55.710Z,53588.56
2023-04-25T13:24:24.114Z,53606.47
2023-04-25T13:26:52.814Z,53600.50
2023-04-25T13:29:21.290Z,53570.69
2023-04-25T13:31:49.764Z,53526.94
2023-04-25T13:34:18.154Z,53568.69
2023-04-25T13:36:48.118Z,53608.44
2023-04-25T13:39:16.576Z,53622.38
2023-04-25T13:41:44.962Z,53614.41
2023-04-25T13:44:13.369Z,53578.63
2023-04-25T13:46:46.991Z,53594.53
2023-04-25T13:49:16.654Z,53475.25
2023-04-25T13:51:45.219Z,53491.16
2023-04-25T13:54:15.244Z,53483.19
2023-04-25T13:56:43.715Z,53540.84
2023-04-25T13:59:12.781Z,53536.88
2023-04-25T14:01:41.356Z,53491.16
2023-04-25T14:04:10.933Z,53479.22
2023-04-25T14:06:39.487Z,53427.53
2023-04-25T14:09:11.228Z,53513.03
2023-04-25T14:11:41.365Z,53427.53
2023-04-25T14:14:11.005Z,53566.69
2023-04-25T14:16:40.237Z,53570.69
2023-04-25T14:19:08.582Z,53618.38
2023-04-25T14:21:37.030Z,53518.97
2023-04-25T14:24:06.055Z,53526.94
2023-04-25T14:26:36.454Z,53538.88
2023-04-25T14:29:07.799Z,53518.97
2023-04-25T14:31:36.334Z,53491.16
2023-04-25T14:34:05.167Z,53513.03
2023-04-25T14:36:34.201Z,53522.97
2023-04-25T14:39:02.799Z,53542.84
2023-04-25T14:41:31.368Z,53546.81
2023-04-25T14:43:59.830Z,53526.94
2023-04-25T14:46:29.846Z,53483.19
2023-04-25T14:48:58.619Z,53518.97
2023-04-25T14:51:27.631Z,53566.69
2023-04-25T14:53:56.258Z,53528.94
2023-04-25T14:56:24.981Z,53550.78
2023-04-25T14:58:53.432Z,53526.94
2023-04-25T15:01:22.963Z,53578.63
2023-04-25T15:03:53.724Z,53560.72
2023-04-25T15:06:22.541Z,53570.69
2023-04-25T15:08:51.478Z,53566.69
2023-04-25T15:11:21.379Z,53546.81
2023-04-25T15:13:52.723Z,53560.72
2023-04-25T15:16:21.965Z,53546.81
2023-04-25T15:18:50.504Z,53620.38
2023-04-25T15:21:20.544Z,53602.47
2023-04-25T15:23:49.627Z,53590.56
2023-04-25T15:26:18.286Z,53612.44
2023-04-25T15:28:46.682Z,53592.53
2023-04-25T15:31:15.309Z,53598.50
2023-04-25T15:33:44.772Z,53580.63
2023-04-25T15:36:13.510Z,53602.47
2023-04-25T15:38:43.316Z,53602.47
2023-04-25T15:41:11.918Z,53592.53
2023-04-25T15:43:40.542Z,53604.47
2023-04-25T15:46:08.935Z,53594.53
2023-04-25T15:48:37.487Z,53584.59
2023-04-25T15:51:06.171Z,53530.91
2023-04-25T15:53:34.592Z,53530.91
2023-04-25T15:56:04.773Z,53518.97
2023-04-25T15:58:33.228Z,53558.75
2023-04-25T16:01:01.703Z,53570.69
2023-04-25T16:03:31.083Z,53570.69
2023-04-25T16:06:01.112Z,53558.75
2023-04-25T16:08:34.289Z,53554.78
2023-04-25T16:11:05.415Z,53610.44
2023-04-25T16:13:35.422Z,53540.84
2023-04-25T16:16:03.982Z,53554.78
2023-04-25T16:18:32.534Z,53588.56
2023-04-25T16:21:01.042Z,53550.78
2023-04-25T16:23:29.623Z,53554.78
2023-04-25T16:25:58.188Z,53606.47
2023-04-25T16:28:28.164Z,53602.47
2023-04-25T16:30:56.728Z,53638.28
2023-04-25T16:33:25.262Z,53626.34
2023-04-25T16:35:54.019Z,53666.09
2023-04-25T16:38:22.980Z,53610.44
2023-04-25T16:40:54.474Z,53662.13
2023-04-25T16:43:23.022Z,53656.16
2023-04-25T16:45:53.266Z,53650.19
2023-04-25T16:48:24.528Z,53656.16
2023-04-25T16:50:53.693Z,53686.00
2023-04-25T16:53:23.380Z,53670.09
2023-04-25T16:55:52.298Z,53687.97
2023-04-25T16:58:22.080Z,53672.06
2023-04-25T17:00:50.577Z,53656.16
2023-04-25T17:03:20.634Z,53670.09
2023-04-25T17:05:51.982Z,53662.13
2023-04-25T17:08:20.540Z,53662.13
2023-04-25T17:10:48.975Z,53674.06
2023-04-25T17:13:17.670Z,53709.84
2023-04-25T17:15:46.500Z,53680.03
2023-04-25T17:18:15.208Z,53666.09
2023-04-25T17:20:47.990Z,53682.00
2023-04-25T17:23:16.565Z,53678.03
2023-04-25T17:25:45.157Z,53654.19
2023-04-25T17:28:13.978Z,53658.16
2023-04-25T17:30:43.221Z,53646.22
2023-04-25T17:33:11.697Z,53642.25
2023-04-25T17:35:40.592Z,53676.03
2023-04-25T17:38:10.283Z,53699.91
2023-04-25T17:40:38.778Z,53678.03
2023-04-25T17:43:07.254Z,53709.84
2023-04-25T17:45:36.357Z,53697.91
2023-04-25T17:48:05.330Z,53699.91
2023-04-25T17:50:34.018Z,53687.97
2023-04-25T17:53:03.696Z,53678.03
2023-04-25T17:55:33.458Z,53664.13
2023-04-25T17:58:01.834Z,53682.00
2023-04-25T18:00:31.823Z,53697.91
2023-04-25T18:03:00.480Z,53699.91
2023-04-25T18:05:31.047Z,53691.94
2023-04-25T18:08:00.279Z,53682.00
2023-04-25T18:10:28.933Z,53676.03
2023-04-25T18:12:58.856Z,53676.03
2023-04-25T18:15:27.409Z,53703.88
2023-04-25T18:17:57.952Z,53676.03
2023-04-25T18:20:28.582Z,53695.94
2023-04-25T18:22:57.521Z,53713.81
2023-04-25T18:25:25.889Z,53737.69
2023-04-25T18:27:54.389Z,53737.69
2023-04-25T18:30:24.562Z,53701.88
2023-04-25T18:32:53.411Z,53741.66
2023-04-25T18:35:22.828Z,53741.66
2023-04-25T18:37:51.362Z,53775.47
2023-04-25T18:40:19.920Z,53737.69
2023-04-25T18:42:49.076Z,53757.56
2023-04-25T18:45:17.925Z,53785.41
2023-04-25T18:47:48.057Z,53765.50
2023-04-25T18:50:20.416Z,53729.72
2023-04-25T18:52:48.963Z,53757.56
2023-04-25T18:55:18.607Z,53765.50
2023-04-25T18:57:47.011Z,53783.41
2023-04-25T19:00:17.479Z,53781.41
2023-04-25T19:02:47.738Z,53789.38
2023-04-25T19:05:16.606Z,53797.31
2023-04-25T19:07:45.192Z,53777.44
2023-04-25T19:10:13.747Z,53807.25
2023-04-25T19:12:42.295Z,53793.34
2023-04-25T19:15:11.454Z,53813.22
2023-04-25T19:17:40.066Z,53805.28
2023-04-25T19:20:11.203Z,53793.34
2023-04-25T19:22:39.823Z,53827.16
2023-04-25T19:25:11.162Z,53781.41
2023-04-25T19:27:40.253Z,53801.31
2023-04-25T19:30:10.847Z,53823.16
2023-04-25T19:32:39.775Z,53833.13
2023-04-25T19:35:12.017Z,53835.09
2023-04-25T19:37:46.652Z,53819.19
2023-04-25T19:40:18.477Z,53819.19
2023-04-25T19:42:47.387Z,53829.13
2023-04-25T19:45:15.966Z,53829.13
2023-04-25T19:47:45.025Z,53845.03
2023-04-25T19:50:14.833Z,53860.94
2023-04-25T19:52:43.212Z,53872.88
2023-04-25T19:55:11.839Z,53862.94
2023-04-25T19:57:40.412Z,53880.84
2023-04-25T20:00:10.931Z,53888.78
2023-04-25T20:02:46.570Z,53908.66
2023-04-25T20:05:18.539Z,53896.75
2023-04-25T20:07:46.865Z,53868.91
2023-04-25T20:10:16.912Z,53908.66
2023-04-25T20:12:46.395Z,53924.56
2023-04-25T20:15:14.924Z,53938.50
2023-04-25T20:17:43.326Z,53934.50
2023-04-25T20:20:13.001Z,53942.47
2023-04-25T20:22:43.021Z,53932.53
2023-04-25T20:25:13.637Z,53944.47
2023-04-25T20:27:42.311Z,53980.25
2023-04-25T20:30:12.347Z,53988.19
2023-04-25T20:32:41.704Z,53976.28
2023-04-25T20:35:14.000Z,54010.06
2023-04-25T20:37:44.018Z,54022.00
2023-04-25T20:40:13.015Z,54039.91
2023-04-25T20:42:42.166Z,54022.00
2023-04-25T20:45:13.817Z,54018.03
2023-04-25T20:47:43.039Z,54065.75
2023-04-25T20:50:12.560Z,54055.81
2023-04-25T20:52:41.889Z,54075.69
2023-04-25T20:55:12.073Z,54055.81
2023-04-25T20:57:41.019Z,54103.53
2023-04-25T21:00:16.942Z,54103.53
2023-04-25T21:02:46.647Z,54101.53
2023-04-25T21:05:15.365Z,54133.34
2023-04-25T21:07:44.634Z,54151.25
2023-04-25T21:10:15.815Z,54143.28
2023-04-25T21:12:48.019Z,54159.19
2023-04-25T21:15:18.285Z,54155.22
2023-04-25T21:17:47.877Z,54149.25
2023-04-25T21:20:18.194Z,54202.94
2023-04-25T21:22:50.981Z,54222.84
2023-04-25T21:25:25.928Z,54226.81
2023-04-25T21:27:54.576Z,54173.13
2023-04-25T21:30:25.077Z,54226.81
2023-04-25T21:32:54.270Z,54224.81
2023-04-25T21:35:23.474Z,54250.69
2023-04-25T21:37:52.111Z,54266.59
2023-04-25T21:40:20.941Z,54250.69
2023-04-25T21:42:53.418Z,54284.47
2023-04-25T21:45:22.499Z,54280.50
2023-04-25T21:47:51.877Z,54338.16
2023-04-25T21:50:21.517Z,54316.28
2023-04-25T21:52:49.995Z,54334.19
2023-04-25T21:55:19.907Z,54338.16
2023-04-25T21:57:48.282Z,54360.03
2023-04-25T22:00:24.467Z,54368.00
2023-04-25T22:02:53.636Z,54358.06
2023-04-25T22:05:22.802Z,54346.13
2023-04-25T22:07:52.489Z,54371.97
2023-04-25T22:10:21.622Z,54397.81
2023-04-25T22:12:51.094Z,54379.94
2023-04-25T22:15:23.588Z,54405.78
2023-04-25T22:17:55.398Z,54405.78
2023-04-25T22:20:26.604Z,54441.56
2023-04-25T22:22:56.595Z,54443.56
2023-04-25T22:25:25.079Z,54449.53
2023-04-25T22:27:53.616Z,54477.38
2023-04-25T22:30:23.670Z,54461.47
2023-04-25T22:32:52.396Z,54467.44
2023-04-25T22:35:20.862Z,54477.38
2023-04-25T22:37:49.254Z,54505.22
2023-04-25T22:40:18.211Z,54509.19
2023-04-25T22:42:46.803Z,54515.16
2023-04-25T22:45:16.091Z,54523.09
2023-04-25T22:47:46.554Z,54485.31
2023-04-25T22:50:17.060Z,54529.06
2023-04-25T22:52:45.565Z,54497.25
2023-04-25T22:55:14.099Z,54535.03
2023-04-25T22:57:43.113Z,54491.28
2023-04-25T23:00:16.564Z,54548.97
2023-04-25T23:02:47.298Z,54554.94
2023-04-25T23:05:16.481Z,54616.56
2023-04-25T23:07:45.791Z,54630.50
2023-04-25T23:10:14.884Z,54624.53
2023-04-25T23:12:43.983Z,54588.75
2023-04-25T23:15:13.521Z,54630.50
2023-04-25T23:17:42.514Z,54614.59
2023-04-25T23:20:13.382Z,54580.78
2023-04-25T23:22:42.239Z,54624.53
2023-04-25T23:25:11.976Z,54632.50
2023-04-25T23:27:40.383Z,54652.38
2023-04-25T23:30:10.372Z,54640.44
2023-04-25T23:32:39.118Z,54654.38
2023-04-25T23:35:08.800Z,54644.41
2023-04-25T23:37:39.371Z,54684.19
2023-04-25T23:40:10.168Z,54708.06
2023-04-25T23:42:39.043Z,54696.13
2023-04-25T23:45:08.851Z,54714.03
2023-04-25T23:47:37.725Z,54747.84
2023-04-25T23:50:07.225Z,54735.91
2023-04-25T23:52:36.120Z,54789.59
2023-04-25T23:55:06.969Z,54759.78
2023-04-25T23:57:35.283Z,54817.44
